createdAt,value
2023-03-17T00:02:17.224Z,72.89
2023-03-17T00:04:49.456Z,72.95
2023-03-17T00:07:21.549Z,72.70
2023-03-17T00:09:53.534Z,72.65
2023-03-17T00:12:25.808Z,72.74
2023-03-17T00:14:58.610Z,72.77
2023-03-17T00:17:31.305Z,72.89
2023-03-17T00:20:03.945Z,72.77
2023-03-17T00:22:36.133Z,72.53
2023-03-17T00:25:19.805Z,72.30
2023-03-17T00:27:52.018Z,72.20
2023-03-17T00:30:24.994Z,72.26
2023-03-17T00:32:59.308Z,72.25
2023-03-17T00:35:30.569Z,72.29
2023-03-17T00:38:02.347Z,72.13
2023-03-17T00:40:34.608Z,71.80
2023-03-17T00:43:08.396Z,72.02
2023-03-17T00:45:44.247Z,72.06
2023-03-17T00:48:19.852Z,72.20
2023-03-17T00:50:52.258Z,72.23
2023-03-17T00:53:24.329Z,72.21
2023-03-17T00:55:56.843Z,72.13
2023-03-17T00:58:31.925Z,72.32
2023-03-17T01:01:04.088Z,72.42
2023-03-17T01:03:36.318Z,72.49
2023-03-17T01:06:11.520Z,72.62
2023-03-17T01:08:44.961Z,72.70
2023-03-17T01:11:19.334Z,72.53
2023-03-17T01:13:51.695Z,72.51
2023-03-17T01:16:24.202Z,72.43
2023-03-17T01:18:56.206Z,72.46
2023-03-17T01:21:28.388Z,72.35
2023-03-17T01:24:00.692Z,72.40
2023-03-17T01:26:34.293Z,72.34
2023-03-17T01:29:08.021Z,72.26
2023-03-17T01:31:40.128Z,72.50
2023-03-17T01:34:12.686Z,72.32
2023-03-17T01:36:47.502Z,72.45
2023-03-17T01:39:19.795Z,72.41
2023-03-17T01:41:53.265Z,72.40
2023-03-17T01:44:25.767Z,72.51
2023-03-17T01:46:57.747Z,72.26
2023-03-17T01:49:32.069Z,72.30
2023-03-17T01:52:12.720Z,72.07
2023-03-17T01:54:50.838Z,71.99
2023-03-17T01:57:26.750Z,72.08
2023-03-17T02:00:14.113Z,71.87
2023-03-17T02:02:48.990Z,71.81
2023-03-17T02:05:24.312Z,71.82
2023-03-17T02:07:56.942Z,71.78
2023-03-17T02:10:32.457Z,71.88
2023-03-17T02:13:05.972Z,71.95
2023-03-17T02:15:41.424Z,71.81
2023-03-17T02:18:15.633Z,71.73
2023-03-17T02:20:50.876Z,71.54
2023-03-17T02:23:24.525Z,71.64
2023-03-17T02:25:57.019Z,71.52
2023-03-17T02:28:31.760Z,71.42
2023-03-17T02:31:04.831Z,71.41
2023-03-17T02:33:37.115Z,71.06
2023-03-17T02:36:11.056Z,71.12
2023-03-17T02:38:42.548Z,71.25
2023-03-17T02:41:14.161Z,71.12
2023-03-17T02:43:46.674Z,70.89
2023-03-17T02:46:18.825Z,70.75
2023-03-17T02:48:51.885Z,70.71
2023-03-17T02:51:24.109Z,70.64
2023-03-17T02:53:56.232Z,70.53
2023-03-17T02:56:28.376Z,70.56
2023-03-17T02:59:00.352Z,70.40
2023-03-17T03:01:32.404Z,70.34
2023-03-17T03:04:04.390Z,69.94
2023-03-17T03:06:37.638Z,69.68
2023-03-17T03:09:11.843Z,69.94
2023-03-17T03:11:43.080Z,69.55
2023-03-17T03:14:15.099Z,69.69
2023-03-17T03:16:47.549Z,69.05
2023-03-17T03:19:19.892Z,68.76
2023-03-17T03:21:52.218Z,68.97
2023-03-17T03:24:24.413Z,68.72
2023-03-17T03:26:56.582Z,68.92
2023-03-17T03:29:28.853Z,68.13
2023-03-17T03:32:01.063Z,67.84
2023-03-17T03:34:33.584Z,67.96
2023-03-17T03:37:05.477Z,67.78
2023-03-17T03:39:38.135Z,67.18
2023-03-17T03:42:10.934Z,67.24
2023-03-17T03:44:43.240Z,67.48
2023-03-17T03:47:15.648Z,67.18
2023-03-17T03:49:47.812Z,66.62
2023-03-17T03:52:20.339Z,66.64
2023-03-17T03:54:52.362Z,66.57
2023-03-17T03:57:24.323Z,66.29
2023-03-17T03:59:56.312Z,66.21
2023-03-17T04:02:28.462Z,65.73
2023-03-17T04:05:01.141Z,65.44
2023-03-17T04:07:33.277Z,65.51
2023-03-17T04:10:06.902Z,65.13
2023-03-17T04:12:39.515Z,64.69
2023-03-17T04:15:15.010Z,64.69
2023-03-17T04:17:47.568Z,64.56
2023-03-17T04:20:20.397Z,63.89
2023-03-17T04:22:53.042Z,63.96
2023-03-17T04:25:25.246Z,63.71
2023-03-17T04:27:57.341Z,63.67
2023-03-17T04:30:30.001Z,63.39
2023-03-17T04:33:02.440Z,62.86
2023-03-17T04:35:34.772Z,62.78
2023-03-17T04:38:07.130Z,62.43
2023-03-17T04:40:39.325Z,61.98
2023-03-17T04:43:12.165Z,61.43
2023-03-17T04:45:44.407Z,61.98
2023-03-17T04:48:16.973Z,61.58
2023-03-17T04:50:48.939Z,61.22
2023-03-17T04:53:21.435Z,61.42
2023-03-17T04:55:54.061Z,60.14
2023-03-17T04:58:30.933Z,60.28
2023-03-17T05:01:00.397Z,59.08
2023-03-17T05:03:33.403Z,59.49
2023-03-17T05:06:07.164Z,59.99
2023-03-17T05:08:39.488Z,58.49
2023-03-17T05:11:12.518Z,59.04
2023-03-17T05:13:44.843Z,58.93
2023-03-17T05:16:17.088Z,58.72
2023-03-17T05:18:49.324Z,58.68
2023-03-17T05:21:22.131Z,58.08
2023-03-17T05:23:55.089Z,57.14
2023-03-17T05:26:29.802Z,57.48
2023-03-17T05:29:02.641Z,56.45
2023-03-17T05:31:35.053Z,56.77
2023-03-17T05:34:07.464Z,56.80
2023-03-17T05:36:40.532Z,55.83
2023-03-17T05:39:14.679Z,55.57
2023-03-17T05:41:47.287Z,55.31
2023-03-17T05:44:19.683Z,55.07
2023-03-17T05:46:53.658Z,55.14
2023-03-17T05:49:27.709Z,54.61
2023-03-17T05:52:00.549Z,54.80
2023-03-17T05:54:33.405Z,53.58
2023-03-17T05:57:06.062Z,53.42
2023-03-17T05:59:38.464Z,53.46
2023-03-17T06:02:11.757Z,53.15
2023-03-17T06:04:44.105Z,52.86
2023-03-17T06:07:17.773Z,52.20
2023-03-17T06:09:50.081Z,51.42
2023-03-17T06:12:22.382Z,51.48
2023-03-17T06:14:54.535Z,51.26
2023-03-17T06:17:27.059Z,51.63
2023-03-17T06:19:59.510Z,52.05
2023-03-17T06:22:33.652Z,51.84
2023-03-17T06:25:06.753Z,52.46
2023-03-17T06:27:39.788Z,51.51
2023-03-17T06:30:13.776Z,51.90
2023-03-17T06:32:46.462Z,51.65
2023-03-17T06:35:19.745Z,52.08
2023-03-17T06:37:52.154Z,51.75
2023-03-17T06:40:25.635Z,51.52
2023-03-17T06:42:59.729Z,50.34
2023-03-17T06:45:34.400Z,49.99
2023-03-17T06:48:07.139Z,47.77
2023-03-17T06:50:40.151Z,45.41
2023-03-17T06:53:13.053Z,42.91
2023-03-17T06:55:45.950Z,39.41
2023-03-17T06:58:18.453Z,38.57
2023-03-17T07:00:52.201Z,39.08
2023-03-17T07:03:25.528Z,40.07
2023-03-17T07:05:58.574Z,40.45
2023-03-17T07:08:31.511Z,42.28
2023-03-17T07:11:04.710Z,42.47
2023-03-17T07:13:39.041Z,43.63
2023-03-17T07:16:12.879Z,44.84
2023-03-17T07:18:45.290Z,45.26
2023-03-17T07:21:18.507Z,43.79
2023-03-17T07:23:51.311Z,43.91
2023-03-17T07:26:24.692Z,44.32
2023-03-17T07:28:57.575Z,44.42
2023-03-17T07:31:30.763Z,44.52
2023-03-17T07:34:04.861Z,44.06
2023-03-17T07:36:38.125Z,45.28
2023-03-17T07:39:12.072Z,43.80
2023-03-17T07:41:44.882Z,43.49
2023-03-17T07:44:17.914Z,43.74
2023-03-17T07:46:51.910Z,43.16
2023-03-17T07:49:40.100Z,42.80
2023-03-17T07:51:58.313Z,42.88
2023-03-17T07:54:30.901Z,43.16
2023-03-17T07:57:03.080Z,43.25
2023-03-17T07:59:36.089Z,43.02
2023-03-17T08:02:08.763Z,42.75
2023-03-17T08:04:41.664Z,41.93
2023-03-17T08:07:15.698Z,42.48
2023-03-17T08:09:48.368Z,42.76
2023-03-17T08:12:20.979Z,43.00
2023-03-17T08:14:55.614Z,43.34
2023-03-17T08:17:27.783Z,41.95
2023-03-17T08:20:00.964Z,42.22
2023-03-17T08:22:33.728Z,41.98
2023-03-17T08:25:06.671Z,42.05
2023-03-17T08:27:40.064Z,41.88
2023-03-17T08:30:13.501Z,41.69
2023-03-17T08:32:46.891Z,41.06
2023-03-17T08:35:19.723Z,40.63
2023-03-17T08:37:56.086Z,41.13
2023-03-17T08:40:27.272Z,41.32
2023-03-17T08:42:59.872Z,40.85
2023-03-17T08:45:32.991Z,41.03
2023-03-17T08:48:05.317Z,40.56
2023-03-17T08:50:38.728Z,40.56
2023-03-17T08:53:11.016Z,39.97
2023-03-17T08:55:44.007Z,39.51
2023-03-17T08:58:23.026Z,39.46
2023-03-17T09:00:57.662Z,40.27
2023-03-17T09:03:31.041Z,40.27
2023-03-17T09:06:04.985Z,40.36
2023-03-17T09:08:43.496Z,39.86
2023-03-17T09:11:18.965Z,40.63
2023-03-17T09:13:57.036Z,39.08
2023-03-17T09:16:33.233Z,39.01
2023-03-17T09:19:11.129Z,37.78
2023-03-17T09:21:43.336Z,38.15
2023-03-17T09:24:16.045Z,38.46
2023-03-17T09:26:49.059Z,38.83
2023-03-17T09:29:21.318Z,38.02
2023-03-17T09:31:56.095Z,39.29
2023-03-17T09:34:28.585Z,37.74
2023-03-17T09:37:01.069Z,38.63
2023-03-17T09:39:33.860Z,37.47
2023-03-17T09:42:21.613Z,37.72
2023-03-17T09:45:14.020Z,37.14
2023-03-17T09:47:55.242Z,37.15
2023-03-17T09:50:30.596Z,41.34
2023-03-17T09:53:05.405Z,37.47
2023-03-17T09:55:39.004Z,36.20
2023-03-17T09:58:12.958Z,35.10
2023-03-17T10:00:44.851Z,35.81
2023-03-17T10:03:18.479Z,38.55
2023-03-17T10:05:50.734Z,37.56
2023-03-17T10:08:34.903Z,43.57
2023-03-17T10:11:24.668Z,39.37
2023-03-17T10:14:28.772Z,38.09
2023-03-17T10:17:06.132Z,37.96
2023-03-17T10:19:44.112Z,37.63
2023-03-17T10:22:23.853Z,36.35
2023-03-17T10:24:58.802Z,34.40
2023-03-17T10:27:33.788Z,35.12
2023-03-17T10:30:09.611Z,34.09
2023-03-17T10:32:42.822Z,33.47
2023-03-17T10:35:17.561Z,32.96
2023-03-17T10:37:48.864Z,32.93
2023-03-17T10:40:30.809Z,34.48
2023-03-17T10:43:08.828Z,32.46
2023-03-17T10:45:45.250Z,32.72
2023-03-17T10:48:20.470Z,32.60
2023-03-17T10:50:54.390Z,33.58
2023-03-17T10:53:28.708Z,33.36
2023-03-17T10:56:03.741Z,32.28
2023-03-17T10:58:47.443Z,32.15
2023-03-17T11:01:43.614Z,33.10
2023-03-17T11:04:36.709Z,30.48
2023-03-17T11:07:12.150Z,31.33
2023-03-17T11:09:44.488Z,31.18
2023-03-17T11:12:28.192Z,31.39
2023-03-17T11:15:03.879Z,31.40
2023-03-17T11:17:50.698Z,30.95
2023-03-17T11:20:43.399Z,31.40
2023-03-17T11:23:36.193Z,30.58
2023-03-17T11:26:15.276Z,30.54
2023-03-17T11:28:59.253Z,31.80
2023-03-17T11:31:34.329Z,31.65
2023-03-17T11:34:12.234Z,31.39
2023-03-17T11:37:07.129Z,32.20
2023-03-17T11:39:45.297Z,32.39
2023-03-17T11:42:23.385Z,32.82
2023-03-17T11:45:10.442Z,32.59
2023-03-17T11:47:54.432Z,30.69
2023-03-17T11:50:41.708Z,30.58
2023-03-17T11:53:37.791Z,29.31
2023-03-17T11:56:28.154Z,29.61
2023-03-17T11:59:09.001Z,29.72
2023-03-17T12:01:47.204Z,29.11
2023-03-17T12:04:25.601Z,29.39
2023-03-17T12:07:08.117Z,28.20
2023-03-17T12:09:43.034Z,28.27
2023-03-17T12:12:18.342Z,28.48
2023-03-17T12:14:54.056Z,28.05
2023-03-17T12:17:31.682Z,27.99
2023-03-17T12:20:12.929Z,28.20
2023-03-17T12:22:55.916Z,27.28
2023-03-17T12:25:55.319Z,28.32
2023-03-17T12:28:33.370Z,26.94
2023-03-17T12:31:11.135Z,27.26
2023-03-17T12:34:08.056Z,27.91
2023-03-17T12:36:41.774Z,27.87
2023-03-17T12:39:37.417Z,27.13
2023-03-17T12:42:28.626Z,26.25
2023-03-17T12:45:03.690Z,25.57
2023-03-17T12:47:41.700Z,23.50
2023-03-17T12:50:31.305Z,20.70
2023-03-17T12:53:29.928Z,18.88
2023-03-17T12:56:13.943Z,17.64
2023-03-17T12:58:49.136Z,16.38
2023-03-17T13:01:41.840Z,14.72
2023-03-17T13:04:37.481Z,13.86
2023-03-17T13:07:20.746Z,12.52
2023-03-17T13:09:58.629Z,11.32
2023-03-17T13:12:45.580Z,11.26
2023-03-17T13:15:31.149Z,11.07
2023-03-17T13:18:16.748Z,10.75
2023-03-17T13:21:01.020Z,10.26
2023-03-17T13:23:44.752Z,10.05
2023-03-17T13:26:26.085Z,10.55
2023-03-17T13:29:01.546Z,10.49
2023-03-17T13:31:37.209Z,10.49
2023-03-17T13:34:15.322Z,10.10
2023-03-17T13:36:59.036Z,9.25
2023-03-17T13:39:55.049Z,9.67
2023-03-17T13:42:52.048Z,8.91
2023-03-17T13:45:44.717Z,9.46
2023-03-17T13:48:35.001Z,8.84
2023-03-17T13:51:15.714Z,8.33
2023-03-17T13:53:56.807Z,8.36
2023-03-17T13:56:32.324Z,8.69
2023-03-17T13:59:07.921Z,8.92
2023-03-17T14:01:42.994Z,8.75
2023-03-17T14:04:18.260Z,8.97
2023-03-17T14:06:53.864Z,9.29
2023-03-17T14:09:45.621Z,9.05
2023-03-17T14:12:20.469Z,8.89
2023-03-17T14:14:58.115Z,8.99
2023-03-17T14:17:33.799Z,10.29
2023-03-17T14:20:09.429Z,12.18
2023-03-17T14:22:45.644Z,13.86
2023-03-17T14:25:26.288Z,15.16
2023-03-17T14:28:00.301Z,16.80
2023-03-17T14:30:35.307Z,17.71
2023-03-17T14:33:28.382Z,18.46
2023-03-17T14:36:03.169Z,18.83
2023-03-17T14:38:40.100Z,19.63
2023-03-17T14:41:24.156Z,20.35
2023-03-17T14:44:01.800Z,20.39
2023-03-17T14:46:37.423Z,19.71
2023-03-17T14:49:21.596Z,20.77
2023-03-17T14:51:58.484Z,21.90
2023-03-17T14:54:35.909Z,22.12
2023-03-17T14:57:10.904Z,22.71
2023-03-17T14:59:45.080Z,22.71
2023-03-17T15:02:38.082Z,22.83
2023-03-17T15:05:25.014Z,22.48
2023-03-17T15:07:57.328Z,23.53
2023-03-17T15:10:32.657Z,23.67
2023-03-17T15:13:07.258Z,22.90
2023-03-17T15:15:41.906Z,23.62
2023-03-17T15:18:15.771Z,23.38
2023-03-17T15:20:48.540Z,23.15
2023-03-17T15:23:27.119Z,23.90
2023-03-17T15:25:59.431Z,24.75
2023-03-17T15:28:33.352Z,24.57
2023-03-17T15:31:15.170Z,25.53
2023-03-17T15:33:47.299Z,24.97
2023-03-17T15:36:31.652Z,25.50
2023-03-17T15:38:53.869Z,26.31
2023-03-17T15:41:26.142Z,26.35
2023-03-17T15:43:58.502Z,27.07
2023-03-17T15:46:32.657Z,27.06
2023-03-17T15:49:08.601Z,26.91
2023-03-17T15:51:41.068Z,27.44
2023-03-17T15:54:15.638Z,27.51
2023-03-17T15:56:48.068Z,28.33
2023-03-17T15:59:20.676Z,28.37
2023-03-17T16:01:53.267Z,29.16
2023-03-17T16:04:25.940Z,28.58
2023-03-17T16:06:58.139Z,29.26
2023-03-17T16:09:30.292Z,30.27
2023-03-17T16:12:03.140Z,30.68
2023-03-17T16:14:35.847Z,30.37
2023-03-17T16:17:09.781Z,30.39
2023-03-17T16:19:41.858Z,30.52
2023-03-17T16:22:17.439Z,30.48
2023-03-17T16:24:49.450Z,31.24
2023-03-17T16:27:21.556Z,31.06
2023-03-17T16:29:53.984Z,31.97
2023-03-17T16:32:26.214Z,31.65
2023-03-17T16:34:58.984Z,31.80
2023-03-17T16:37:32.683Z,32.12
2023-03-17T16:40:05.275Z,32.21
2023-03-17T16:42:40.387Z,32.22
2023-03-17T16:45:18.497Z,32.22
2023-03-17T16:47:51.038Z,31.88
2023-03-17T16:50:25.942Z,32.37
2023-03-17T16:52:58.718Z,31.93
2023-03-17T16:55:31.143Z,33.21
2023-03-17T16:58:09.126Z,33.28
2023-03-17T17:00:41.483Z,32.51
2023-03-17T17:03:14.141Z,32.98
2023-03-17T17:05:46.493Z,33.43
2023-03-17T17:08:20.749Z,33.30
2023-03-17T17:10:53.048Z,33.35
2023-03-17T17:13:25.162Z,33.40
2023-03-17T17:15:57.594Z,33.10
2023-03-17T17:18:30.351Z,33.82
2023-03-17T17:21:04.170Z,33.68
2023-03-17T17:23:36.504Z,34.37
2023-03-17T17:26:08.743Z,34.43
2023-03-17T17:28:40.876Z,33.88
2023-03-17T17:31:13.472Z,34.28
2023-03-17T17:33:48.113Z,34.55
2023-03-17T17:36:20.508Z,35.23
2023-03-17T17:38:52.719Z,34.66
2023-03-17T17:41:25.127Z,34.92
2023-03-17T17:43:57.075Z,35.36
2023-03-17T17:46:29.133Z,35.39
2023-03-17T17:49:01.374Z,35.01
2023-03-17T17:51:33.604Z,35.93
2023-03-17T17:54:06.024Z,35.71
2023-03-17T17:56:39.913Z,35.92
2023-03-17T17:59:12.416Z,35.49
2023-03-17T18:01:44.801Z,36.18
2023-03-17T18:04:17.447Z,36.19
2023-03-17T18:06:49.889Z,36.38
2023-03-17T18:09:22.515Z,35.96
2023-03-17T18:11:54.957Z,37.07
2023-03-17T18:14:27.884Z,35.99
2023-03-17T18:17:00.233Z,36.33
2023-03-17T18:19:32.219Z,36.45
2023-03-17T18:22:04.575Z,36.07
2023-03-17T18:24:37.246Z,36.84
2023-03-17T18:27:09.634Z,36.55
2023-03-17T18:29:43.456Z,37.79
2023-03-17T18:32:16.162Z,38.01
2023-03-17T18:34:49.144Z,38.39
2023-03-17T18:37:21.150Z,37.88
2023-03-17T18:40:11.806Z,37.84
2023-03-17T18:42:27.610Z,37.77
2023-03-17T18:45:00.034Z,37.86
2023-03-17T18:47:33.562Z,38.62
2023-03-17T18:50:06.546Z,38.43
2023-03-17T18:52:41.055Z,38.14
2023-03-17T18:55:14.863Z,38.56
2023-03-17T18:57:47.066Z,38.61
2023-03-17T19:00:19.546Z,38.73
2023-03-17T19:02:51.632Z,38.29
2023-03-17T19:05:24.729Z,38.58
2023-03-17T19:07:57.066Z,38.42
2023-03-17T19:10:30.037Z,39.21
2023-03-17T19:13:02.318Z,39.22
2023-03-17T19:15:35.652Z,39.00
2023-03-17T19:18:07.816Z,38.27
2023-03-17T19:20:39.831Z,38.60
2023-03-17T19:23:12.695Z,38.70
2023-03-17T19:25:44.678Z,39.44
2023-03-17T19:28:17.165Z,39.37
2023-03-17T19:30:49.217Z,39.42
2023-03-17T19:33:21.451Z,40.05
2023-03-17T19:35:57.168Z,39.87
2023-03-17T19:38:29.068Z,39.42
2023-03-17T19:41:01.233Z,39.58
2023-03-17T19:43:40.854Z,40.16
2023-03-17T19:46:08.155Z,39.39
2023-03-17T19:48:40.846Z,40.10
2023-03-17T19:51:12.817Z,39.91
2023-03-17T19:53:45.049Z,40.17
2023-03-17T19:56:17.084Z,39.53
2023-03-17T19:58:49.127Z,40.14
2023-03-17T20:01:22.180Z,39.87
2023-03-17T20:03:54.270Z,40.05
2023-03-17T20:06:26.193Z,40.08
2023-03-17T20:08:58.172Z,40.03
2023-03-17T20:11:31.740Z,39.93
2023-03-17T20:14:04.409Z,40.02
2023-03-17T20:16:37.136Z,39.70
2023-03-17T20:19:09.221Z,39.76
2023-03-17T20:21:42.255Z,40.41
2023-03-17T20:24:14.897Z,39.80
2023-03-17T20:26:48.969Z,40.36
2023-03-17T20:29:20.335Z,40.22
2023-03-17T20:31:51.930Z,39.75
2023-03-17T20:34:24.535Z,40.30
2023-03-17T20:36:57.063Z,40.63
2023-03-17T20:39:29.535Z,40.95
2023-03-17T20:42:02.489Z,40.54
2023-03-17T20:44:34.557Z,40.86
2023-03-17T20:47:06.538Z,40.39
2023-03-17T20:49:38.517Z,40.70
2023-03-17T20:52:13.508Z,40.25
2023-03-17T20:54:45.770Z,39.45
2023-03-17T20:57:19.066Z,40.41
2023-03-17T20:59:52.095Z,39.84
2023-03-17T21:02:24.104Z,39.91
2023-03-17T21:04:56.298Z,39.78
2023-03-17T21:07:28.286Z,39.94
2023-03-17T21:10:02.129Z,39.61
2023-03-17T21:12:34.122Z,39.39
2023-03-17T21:15:07.875Z,39.60
2023-03-17T21:17:39.620Z,39.37
2023-03-17T21:20:14.076Z,39.46
2023-03-17T21:22:46.257Z,39.82
2023-03-17T21:25:18.275Z,39.88
2023-03-17T21:27:50.903Z,39.56
2023-03-17T21:30:22.809Z,39.67
2023-03-17T21:32:58.027Z,39.56
2023-03-17T21:35:30.975Z,39.87
2023-03-17T21:38:03.248Z,39.89
2023-03-17T21:40:35.425Z,39.82
2023-03-17T21:43:07.435Z,39.94
2023-03-17T21:45:40.675Z,40.31
2023-03-17T21:48:12.598Z,40.43
2023-03-17T21:50:45.190Z,40.88
2023-03-17T21:53:17.467Z,40.84
2023-03-17T21:55:49.596Z,40.80
2023-03-17T21:58:22.196Z,41.11
2023-03-17T22:00:54.255Z,41.01
2023-03-17T22:03:26.221Z,41.27
2023-03-17T22:05:58.856Z,41.61
2023-03-17T22:08:30.884Z,41.69
2023-03-17T22:11:04.827Z,41.90
2023-03-17T22:13:37.475Z,42.03
2023-03-17T22:16:10.848Z,42.31
2023-03-17T22:18:43.850Z,42.67
2023-03-17T22:21:16.113Z,42.84
2023-03-17T22:23:48.561Z,42.46
2023-03-17T22:26:22.085Z,42.83
2023-03-17T22:28:54.063Z,42.73
2023-03-17T22:31:28.348Z,42.55
2023-03-17T22:34:01.225Z,42.85
2023-03-17T22:36:33.261Z,43.01
2023-03-17T22:39:08.267Z,43.08
2023-03-17T22:41:41.127Z,43.18
2023-03-17T22:44:13.510Z,43.82
2023-03-17T22:46:45.795Z,43.63
2023-03-17T22:49:17.744Z,43.37
2023-03-17T22:51:50.124Z,43.78
2023-03-17T22:54:22.193Z,44.25
2023-03-17T22:56:54.051Z,43.85
2023-03-17T22:59:26.188Z,43.92
2023-03-17T23:01:58.235Z,44.07
2023-03-17T23:04:30.330Z,44.31
2023-03-17T23:07:02.235Z,44.38
2023-03-17T23:09:34.383Z,44.62
2023-03-17T23:12:07.886Z,44.80
2023-03-17T23:14:40.192Z,44.63
2023-03-17T23:17:13.237Z,44.62
2023-03-17T23:19:45.332Z,44.77
2023-03-17T23:22:17.654Z,45.14
2023-03-17T23:24:49.881Z,44.86
2023-03-17T23:27:21.695Z,45.15
2023-03-17T23:29:53.602Z,45.41
2023-03-17T23:32:25.608Z,45.42
2023-03-17T23:34:57.653Z,45.42
2023-03-17T23:37:29.420Z,45.74
2023-03-17T23:40:01.505Z,45.67
2023-03-17T23:42:33.836Z,46.00
2023-03-17T23:45:06.226Z,46.14
2023-03-17T23:47:39.209Z,46.04
2023-03-17T23:50:12.545Z,46.04
2023-03-17T23:52:45.068Z,46.40
2023-03-17T23:55:17.528Z,46.26
2023-03-17T23:57:50.417Z,46.44
